sensor_id;sensor_type;location;lat;lon;timestamp;noise_LAeq;noise_LA_min;noise_LA_max;noise_LA01;noise_LA95
40103;Laerm;25814;48.550;9.108;2023-11-22T00:01:04;29.74;28.91;31.69;;
40103;Laerm;25814;48.550;9.108;2023-11-22T00:03:31;29.70;28.80;31.92;;
40103;Laerm;25814;48.550;9.108;2023-11-22T00:05:57;31.75;28.69;44.50;;
40103;Laerm;25814;48.550;9.108;2023-11-22T00:08:23;29.50;28.65;33.85;;
40103;Laerm;25814;48.550;9.108;2023-11-22T00:10:50;29.41;28.83;30.60;;
40103;Laerm;25814;48.550;9.108;2023-11-22T00:13:16;29.63;28.80;31.00;;
40103;Laerm;25814;48.550;9.108;2023-11-22T00:15:42;29.76;28.85;32.52;;
40103;Laerm;25814;48.550;9.108;2023-11-22T00:18:08;29.45;28.75;31.40;;
40103;Laerm;25814;48.550;9.108;2023-11-22T00:20:34;37.40;29.26;46.51;;
40103;Laerm;25814;48.550;9.108;2023-11-22T00:23:00;30.40;28.94;34.38;;
40103;Laerm;25814;48.550;9.108;2023-11-22T00:25:28;30.44;29.07;32.88;;
40103;Laerm;25814;48.550;9.108;2023-11-22T00:27:55;38.02;30.01;50.27;;
40103;Laerm;25814;48.550;9.108;2023-11-22T00:30:21;31.08;29.15;44.34;;
40103;Laerm;25814;48.550;9.108;2023-11-22T00:32:48;29.69;28.93;31.18;;
40103;Laerm;25814;48.550;9.108;2023-11-22T00:35:15;29.60;28.84;31.71;;
40103;Laerm;25814;48.550;9.108;2023-11-22T00:37:41;29.58;28.85;30.34;;
40103;Laerm;25814;48.550;9.108;2023-11-22T00:40:07;29.49;28.67;31.17;;
40103;Laerm;25814;48.550;9.108;2023-11-22T00:42:37;29.74;28.79;32.53;;
40103;Laerm;25814;48.550;9.108;2023-11-22T00:45:06;29.58;28.87;30.76;;
40103;Laerm;25814;48.550;9.108;2023-11-22T00:47:33;29.92;28.98;34.19;;
40103;Laerm;25814;48.550;9.108;2023-11-22T00:49:59;29.65;28.89;32.12;;
40103;Laerm;25814;48.550;9.108;2023-11-22T00:52:26;29.75;28.95;34.88;;
40103;Laerm;25814;48.550;9.108;2023-11-22T00:54:53;29.66;28.87;33.55;;
40103;Laerm;25814;48.550;9.108;2023-11-22T00:57:19;29.53;28.69;30.78;;
40103;Laerm;25814;48.550;9.108;2023-11-22T00:59:46;29.53;28.65;30.89;;
40103;Laerm;25814;48.550;9.108;2023-11-22T01:02:12;30.53;28.95;34.04;;
40103;Laerm;25814;48.550;9.108;2023-11-22T01:04:38;31.19;29.28;34.65;;
40103;Laerm;25814;48.550;9.108;2023-11-22T01:07:05;31.24;29.80;35.97;;
40103;Laerm;25814;48.550;9.108;2023-11-22T01:09:32;41.54;29.96;50.78;;
40103;Laerm;25814;48.550;9.108;2023-11-22T01:12:00;47.36;40.35;63.84;;
40103;Laerm;25814;48.550;9.108;2023-11-22T01:14:26;43.35;36.91;50.96;;
40103;Laerm;25814;48.550;9.108;2023-11-22T01:16:54;37.63;31.35;46.18;;
40103;Laerm;25814;48.550;9.108;2023-11-22T01:19:20;36.91;30.69;46.85;;
40103;Laerm;25814;48.550;9.108;2023-11-22T01:21:47;43.58;34.17;53.54;;
40103;Laerm;25814;48.550;9.108;2023-11-22T01:24:13;43.71;35.72;50.01;;
40103;Laerm;25814;48.550;9.108;2023-11-22T01:26:39;40.74;33.33;47.91;;
40103;Laerm;25814;48.550;9.108;2023-11-22T01:29:05;37.28;30.84;47.84;;
40103;Laerm;25814;48.550;9.108;2023-11-22T01:31:32;33.73;29.96;43.42;;
40103;Laerm;25814;48.550;9.108;2023-11-22T01:34:00;33.52;29.72;45.05;;
40103;Laerm;25814;48.550;9.108;2023-11-22T01:36:27;34.39;30.00;41.83;;
40103;Laerm;25814;48.550;9.108;2023-11-22T01:38:53;37.16;29.89;49.03;;
40103;Laerm;25814;48.550;9.108;2023-11-22T01:41:21;35.85;29.81;45.81;;
40103;Laerm;25814;48.550;9.108;2023-11-22T01:43:47;37.17;30.41;48.29;;
40103;Laerm;25814;48.550;9.108;2023-11-22T01:46:23;37.76;30.50;56.71;;
40103;Laerm;25814;48.550;9.108;2023-11-22T01:48:50;34.52;30.05;42.19;;
40103;Laerm;25814;48.550;9.108;2023-11-22T01:51:20;33.29;29.57;45.23;;
40103;Laerm;25814;48.550;9.108;2023-11-22T01:53:48;35.62;30.42;44.76;;
40103;Laerm;25814;48.550;9.108;2023-11-22T01:56:16;32.22;29.75;43.98;;
40103;Laerm;25814;48.550;9.108;2023-11-22T01:58:43;39.64;30.35;48.93;;
40103;Laerm;25814;48.550;9.108;2023-11-22T02:01:12;34.97;30.63;43.20;;
40103;Laerm;25814;48.550;9.108;2023-11-22T02:03:39;37.50;30.10;46.52;;
40103;Laerm;25814;48.550;9.108;2023-11-22T02:06:06;36.56;30.33;46.17;;
40103;Laerm;25814;48.550;9.108;2023-11-22T02:08:32;35.28;30.26;44.97;;
40103;Laerm;25814;48.550;9.108;2023-11-22T02:10:59;39.30;33.21;47.32;;
40103;Laerm;25814;48.550;9.108;2023-11-22T02:13:31;38.26;32.36;44.88;;
40103;Laerm;25814;48.550;9.108;2023-11-22T02:15:58;36.29;30.58;45.61;;
40103;Laerm;25814;48.550;9.108;2023-11-22T02:18:27;37.05;30.28;44.65;;
40103;Laerm;25814;48.550;9.108;2023-11-22T02:20:53;38.99;31.34;45.07;;
40103;Laerm;25814;48.550;9.108;2023-11-22T02:23:19;35.54;30.54;44.40;;
40103;Laerm;25814;48.550;9.108;2023-11-22T02:25:45;37.01;30.74;45.89;;
40103;Laerm;25814;48.550;9.108;2023-11-22T02:28:12;32.94;29.85;37.77;;
40103;Laerm;25814;48.550;9.108;2023-11-22T02:30:38;36.40;30.89;42.90;;
40103;Laerm;25814;48.550;9.108;2023-11-22T02:33:04;33.78;29.81;44.58;;
40103;Laerm;25814;48.550;9.108;2023-11-22T02:35:31;35.04;29.50;46.23;;
40103;Laerm;25814;48.550;9.108;2023-11-22T02:37:58;31.70;29.32;36.48;;
40103;Laerm;25814;48.550;9.108;2023-11-22T02:40:24;30.40;29.19;36.41;;
40103;Laerm;25814;48.550;9.108;2023-11-22T02:42:53;37.27;29.35;50.53;;
40103;Laerm;25814;48.550;9.108;2023-11-22T02:45:24;34.72;29.72;42.96;;
40103;Laerm;25814;48.550;9.108;2023-11-22T02:47:50;35.40;30.03;47.23;;
40103;Laerm;25814;48.550;9.108;2023-11-22T02:50:18;33.04;29.61;43.42;;
40103;Laerm;25814;48.550;9.108;2023-11-22T02:52:44;40.50;30.64;46.98;;
40103;Laerm;25814;48.550;9.108;2023-11-22T02:55:10;39.29;33.01;51.10;;
40103;Laerm;25814;48.550;9.108;2023-11-22T02:57:37;38.81;30.73;53.79;;
40103;Laerm;25814;48.550;9.108;2023-11-22T03:00:06;34.54;29.58;43.29;;
40103;Laerm;25814;48.550;9.108;2023-11-22T03:02:34;38.55;30.67;48.14;;
40103;Laerm;25814;48.550;9.108;2023-11-22T03:05:00;33.39;29.61;41.85;;
40103;Laerm;25814;48.550;9.108;2023-11-22T03:07:27;32.41;29.67;36.88;;
40103;Laerm;25814;48.550;9.108;2023-11-22T03:09:53;39.20;30.99;51.23;;
40103;Laerm;25814;48.550;9.108;2023-11-22T03:12:20;36.83;31.04;47.17;;
40103;Laerm;25814;48.550;9.108;2023-11-22T03:14:47;36.15;30.58;45.25;;
40103;Laerm;25814;48.550;9.108;2023-11-22T03:17:15;34.98;29.92;43.14;;
40103;Laerm;25814;48.550;9.108;2023-11-22T03:19:41;31.22;29.96;33.64;;
40103;Laerm;25814;48.550;9.108;2023-11-22T03:22:07;30.94;29.84;36.92;;
40103;Laerm;25814;48.550;9.108;2023-11-22T03:24:34;33.10;29.84;44.35;;
40103;Laerm;25814;48.550;9.108;2023-11-22T03:27:02;34.75;30.79;42.87;;
40103;Laerm;25814;48.550;9.108;2023-11-22T03:29:29;40.58;32.44;49.23;;
40103;Laerm;25814;48.550;9.108;2023-11-22T03:31:55;36.46;30.89;45.49;;
40103;Laerm;25814;48.550;9.108;2023-11-22T03:34:21;40.29;32.68;48.25;;
40103;Laerm;25814;48.550;9.108;2023-11-22T03:36:48;39.76;30.96;47.74;;
40103;Laerm;25814;48.550;9.108;2023-11-22T03:39:16;37.20;30.64;49.02;;
40103;Laerm;25814;48.550;9.108;2023-11-22T03:41:42;35.93;31.28;42.85;;
40103;Laerm;25814;48.550;9.108;2023-11-22T03:44:09;35.26;30.82;40.22;;
40103;Laerm;25814;48.550;9.108;2023-11-22T03:46:36;35.77;31.24;50.64;;
40103;Laerm;25814;48.550;9.108;2023-11-22T03:49:04;40.69;31.66;46.38;;
40103;Laerm;25814;48.550;9.108;2023-11-22T03:51:32;38.53;32.51;45.49;;
40103;Laerm;25814;48.550;9.108;2023-11-22T03:53:59;35.16;32.22;41.49;;
40103;Laerm;25814;48.550;9.108;2023-11-22T03:56:26;36.65;31.13;44.79;;
40103;Laerm;25814;48.550;9.108;2023-11-22T03:58:52;35.56;31.16;42.05;;
40103;Laerm;25814;48.550;9.108;2023-11-22T04:01:18;39.31;34.38;45.25;;
40103;Laerm;25814;48.550;9.108;2023-11-22T04:03:48;38.32;31.79;45.20;;
40103;Laerm;25814;48.550;9.108;2023-11-22T04:06:16;40.89;33.49;51.48;;
40103;Laerm;25814;48.550;9.108;2023-11-22T04:08:43;38.66;32.94;47.37;;
40103;Laerm;25814;48.550;9.108;2023-11-22T04:11:10;41.59;33.56;53.05;;
40103;Laerm;25814;48.550;9.108;2023-11-22T04:13:37;42.80;32.48;55.80;;
40103;Laerm;25814;48.550;9.108;2023-11-22T04:16:04;33.92;31.76;46.13;;
40103;Laerm;25814;48.550;9.108;2023-11-22T04:18:34;37.28;32.24;50.05;;
40103;Laerm;25814;48.550;9.108;2023-11-22T04:21:02;34.86;31.42;41.68;;
40103;Laerm;25814;48.550;9.108;2023-11-22T04:23:33;37.78;32.42;47.64;;
40103;Laerm;25814;48.550;9.108;2023-11-22T04:26:00;39.17;31.29;52.05;;
40103;Laerm;25814;48.550;9.108;2023-11-22T04:28:28;42.26;31.66;52.65;;
40103;Laerm;25814;48.550;9.108;2023-11-22T04:30:57;39.01;31.82;45.52;;
40103;Laerm;25814;48.550;9.108;2023-11-22T04:33:24;36.15;31.44;44.03;;
40103;Laerm;25814;48.550;9.108;2023-11-22T04:35:50;42.37;33.03;51.13;;
40103;Laerm;25814;48.550;9.108;2023-11-22T04:38:17;38.26;31.70;51.28;;
40103;Laerm;25814;48.550;9.108;2023-11-22T04:40:44;37.09;31.58;52.82;;
40103;Laerm;25814;48.550;9.108;2023-11-22T04:43:10;34.58;31.60;41.00;;
40103;Laerm;25814;48.550;9.108;2023-11-22T04:45:36;36.31;32.20;48.60;;
40103;Laerm;25814;48.550;9.108;2023-11-22T04:48:03;34.62;31.77;43.82;;
40103;Laerm;25814;48.550;9.108;2023-11-22T04:50:30;33.81;31.90;37.57;;
40103;Laerm;25814;48.550;9.108;2023-11-22T04:52:57;34.68;30.57;43.68;;
40103;Laerm;25814;48.550;9.108;2023-11-22T04:55:23;32.63;30.25;39.15;;
40103;Laerm;25814;48.550;9.108;2023-11-22T04:57:49;33.12;30.69;51.03;;
40103;Laerm;25814;48.550;9.108;2023-11-22T05:00:15;35.59;30.59;45.02;;
40103;Laerm;25814;48.550;9.108;2023-11-22T05:02:42;35.51;31.44;42.94;;
40103;Laerm;25814;48.550;9.108;2023-11-22T05:05:09;35.95;32.07;44.07;;
40103;Laerm;25814;48.550;9.108;2023-11-22T05:07:38;34.49;32.64;38.45;;
40103;Laerm;25814;48.550;9.108;2023-11-22T05:10:05;36.29;31.42;46.26;;
40103;Laerm;25814;48.550;9.108;2023-11-22T05:12:34;35.10;31.29;46.79;;
40103;Laerm;25814;48.550;9.108;2023-11-22T05:15:04;37.56;31.68;47.06;;
40103;Laerm;25814;48.550;9.108;2023-11-22T05:17:31;34.20;30.78;44.44;;
40103;Laerm;25814;48.550;9.108;2023-11-22T05:19:57;44.11;31.77;57.69;;
40103;Laerm;25814;48.550;9.108;2023-11-22T05:22:23;34.55;31.42;39.14;;
40103;Laerm;25814;48.550;9.108;2023-11-22T05:24:50;33.72;31.21;44.01;;
40103;Laerm;25814;48.550;9.108;2023-11-22T05:27:16;36.12;32.63;43.91;;
40103;Laerm;25814;48.550;9.108;2023-11-22T05:29:42;35.85;30.88;43.86;;
40103;Laerm;25814;48.550;9.108;2023-11-22T05:32:09;32.92;30.97;40.39;;
40103;Laerm;25814;48.550;9.108;2023-11-22T05:34:35;34.29;32.80;39.53;;
40103;Laerm;25814;48.550;9.108;2023-11-22T05:37:01;37.97;31.94;51.74;;
40103;Laerm;25814;48.550;9.108;2023-11-22T05:39:27;36.87;31.69;45.36;;
40103;Laerm;25814;48.550;9.108;2023-11-22T05:41:53;33.46;30.76;43.23;;
40103;Laerm;25814;48.550;9.108;2023-11-22T05:44:20;35.06;31.15;47.28;;
40103;Laerm;25814;48.550;9.108;2023-11-22T05:46:46;35.73;31.31;47.78;;
40103;Laerm;25814;48.550;9.108;2023-11-22T05:49:12;36.63;31.73;46.83;;
40103;Laerm;25814;48.550;9.108;2023-11-22T05:51:38;38.69;31.69;55.31;;
40103;Laerm;25814;48.550;9.108;2023-11-22T05:54:04;35.55;31.65;49.64;;
40103;Laerm;25814;48.550;9.108;2023-11-22T05:56:30;33.44;31.10;38.04;;
40103;Laerm;25814;48.550;9.108;2023-11-22T05:58:57;35.85;31.49;51.65;;
40103;Laerm;25814;48.550;9.108;2023-11-22T06:01:25;35.47;31.16;49.16;;
40103;Laerm;25814;48.550;9.108;2023-11-22T06:03:56;34.64;31.64;44.22;;
40103;Laerm;25814;48.550;9.108;2023-11-22T06:06:22;36.60;32.68;45.96;;
40103;Laerm;25814;48.550;9.108;2023-11-22T06:08:48;42.76;31.71;64.75;;
40103;Laerm;25814;48.550;9.108;2023-11-22T06:11:15;43.07;31.44;69.25;;
40103;Laerm;25814;48.550;9.108;2023-11-22T06:13:42;37.00;31.90;51.27;;
40103;Laerm;25814;48.550;9.108;2023-11-22T06:16:08;33.90;31.69;43.03;;
40103;Laerm;25814;48.550;9.108;2023-11-22T06:18:35;50.99;31.94;64.72;;
40103;Laerm;25814;48.550;9.108;2023-11-22T06:21:07;38.47;32.11;62.42;;
40103;Laerm;25814;48.550;9.108;2023-11-22T06:23:33;35.13;32.54;44.41;;
40103;Laerm;25814;48.550;9.108;2023-11-22T06:25:59;37.86;31.57;61.75;;
40103;Laerm;25814;48.550;9.108;2023-11-22T06:28:26;40.53;31.64;58.34;;
40103;Laerm;25814;48.550;9.108;2023-11-22T06:30:52;38.24;32.34;54.36;;
40103;Laerm;25814;48.550;9.108;2023-11-22T06:33:18;35.66;31.61;51.00;;
40103;Laerm;25814;48.550;9.108;2023-11-22T06:35:45;36.90;32.18;59.19;;
40103;Laerm;25814;48.550;9.108;2023-11-22T06:38:11;36.01;31.89;49.29;;
40103;Laerm;25814;48.550;9.108;2023-11-22T06:40:37;41.96;33.15;63.40;;
40103;Laerm;25814;48.550;9.108;2023-11-22T06:43:03;38.71;32.65;47.94;;
40103;Laerm;25814;48.550;9.108;2023-11-22T06:45:32;35.48;32.19;42.78;;
40103;Laerm;25814;48.550;9.108;2023-11-22T06:47:58;50.23;33.50;64.18;;
40103;Laerm;25814;48.550;9.108;2023-11-22T06:50:24;43.07;33.63;58.58;;
40103;Laerm;25814;48.550;9.108;2023-11-22T06:52:50;47.50;32.48;62.52;;
40103;Laerm;25814;48.550;9.108;2023-11-22T06:55:18;38.67;32.47;55.79;;
40103;Laerm;25814;48.550;9.108;2023-11-22T06:57:44;39.46;32.55;54.67;;
40103;Laerm;25814;48.550;9.108;2023-11-22T07:00:11;42.52;32.55;54.78;;
40103;Laerm;25814;48.550;9.108;2023-11-22T07:02:38;37.24;33.28;47.05;;
40103;Laerm;25814;48.550;9.108;2023-11-22T07:05:05;36.98;33.61;47.29;;
40103;Laerm;25814;48.550;9.108;2023-11-22T07:07:34;35.37;32.82;41.63;;
40103;Laerm;25814;48.550;9.108;2023-11-22T07:10:01;38.85;33.00;52.33;;
40103;Laerm;25814;48.550;9.108;2023-11-22T07:12:27;49.57;32.73;73.82;;
40103;Laerm;25814;48.550;9.108;2023-11-22T07:14:54;37.33;34.05;53.32;;
40103;Laerm;25814;48.550;9.108;2023-11-22T07:17:21;36.49;32.64;50.17;;
40103;Laerm;25814;48.550;9.108;2023-11-22T07:19:48;34.99;31.71;52.15;;
40103;Laerm;25814;48.550;9.108;2023-11-22T07:22:17;40.88;31.80;56.58;;
40103;Laerm;25814;48.550;9.108;2023-11-22T07:24:48;39.86;31.74;56.46;;
40103;Laerm;25814;48.550;9.108;2023-11-22T07:27:20;34.02;31.72;37.53;;
40103;Laerm;25814;48.550;9.108;2023-11-22T07:29:46;32.62;31.64;41.93;;
40103;Laerm;25814;48.550;9.108;2023-11-22T07:32:13;34.23;31.68;45.77;;
40103;Laerm;25814;48.550;9.108;2023-11-22T07:34:40;34.11;31.72;43.72;;
40103;Laerm;25814;48.550;9.108;2023-11-22T07:37:07;41.58;33.73;54.84;;
40103;Laerm;25814;48.550;9.108;2023-11-22T07:39:37;33.52;31.60;41.18;;
40103;Laerm;25814;48.550;9.108;2023-11-22T07:42:04;35.00;32.02;48.26;;
40103;Laerm;25814;48.550;9.108;2023-11-22T07:44:33;34.57;31.84;48.54;;
40103;Laerm;25814;48.550;9.108;2023-11-22T07:47:02;33.96;32.08;40.54;;
40103;Laerm;25814;48.550;9.108;2023-11-22T07:49:28;37.81;32.12;54.57;;
40103;Laerm;25814;48.550;9.108;2023-11-22T07:52:03;35.35;31.77;49.32;;
40103;Laerm;25814;48.550;9.108;2023-11-22T07:54:29;33.34;31.77;44.72;;
40103;Laerm;25814;48.550;9.108;2023-11-22T07:56:55;34.20;31.95;42.85;;
40103;Laerm;25814;48.550;9.108;2023-11-22T07:59:22;35.60;32.14;45.25;;
40103;Laerm;25814;48.550;9.108;2023-11-22T08:01:48;34.24;32.11;43.85;;
40103;Laerm;25814;48.550;9.108;2023-11-22T08:04:15;35.12;32.08;44.28;;
40103;Laerm;25814;48.550;9.108;2023-11-22T08:06:45;35.69;31.99;49.31;;
40103;Laerm;25814;48.550;9.108;2023-11-22T08:09:12;39.00;31.71;61.31;;
40103;Laerm;25814;48.550;9.108;2023-11-22T08:11:38;39.08;32.05;49.01;;
40103;Laerm;25814;48.550;9.108;2023-11-22T08:14:06;33.37;31.96;42.48;;
40103;Laerm;25814;48.550;9.108;2023-11-22T08:16:33;33.26;31.83;44.18;;
40103;Laerm;25814;48.550;9.108;2023-11-22T08:19:04;35.46;32.10;44.37;;
40103;Laerm;25814;48.550;9.108;2023-11-22T08:21:33;36.14;33.28;47.12;;
40103;Laerm;25814;48.550;9.108;2023-11-22T08:23:59;34.97;32.31;45.71;;
40103;Laerm;25814;48.550;9.108;2023-11-22T08:26:25;35.72;32.56;52.67;;
40103;Laerm;25814;48.550;9.108;2023-11-22T08:28:52;37.19;33.50;44.83;;
40103;Laerm;25814;48.550;9.108;2023-11-22T08:31:18;35.56;32.62;48.38;;
40103;Laerm;25814;48.550;9.108;2023-11-22T08:33:44;35.53;33.39;42.41;;
40103;Laerm;25814;48.550;9.108;2023-11-22T08:36:10;37.33;33.05;54.02;;
40103;Laerm;25814;48.550;9.108;2023-11-22T08:38:36;41.48;32.56;62.80;;
40103;Laerm;25814;48.550;9.108;2023-11-22T08:41:07;34.91;32.64;41.75;;
40103;Laerm;25814;48.550;9.108;2023-11-22T08:43:36;36.04;32.86;46.68;;
40103;Laerm;25814;48.550;9.108;2023-11-22T08:46:03;48.17;32.82;72.81;;
40103;Laerm;25814;48.550;9.108;2023-11-22T08:48:30;36.34;32.64;53.95;;
40103;Laerm;25814;48.550;9.108;2023-11-22T08:50:56;34.88;32.50;46.21;;
40103;Laerm;25814;48.550;9.108;2023-11-22T08:53:24;35.79;32.30;51.64;;
40103;Laerm;25814;48.550;9.108;2023-11-22T08:55:50;35.98;32.05;54.68;;
40103;Laerm;25814;48.550;9.108;2023-11-22T08:58:18;45.82;31.79;61.91;;
40103;Laerm;25814;48.550;9.108;2023-11-22T09:00:44;57.16;32.83;82.01;;
40103;Laerm;25814;48.550;9.108;2023-11-22T09:03:11;55.67;31.32;84.13;;
40103;Laerm;25814;48.550;9.108;2023-11-22T09:05:41;57.57;31.44;82.96;;
40103;Laerm;25814;48.550;9.108;2023-11-22T09:08:08;37.45;31.30;57.66;;
40103;Laerm;25814;48.550;9.108;2023-11-22T09:10:41;54.53;30.95;77.65;;
40103;Laerm;25814;48.550;9.108;2023-11-22T09:13:08;50.32;31.00;69.35;;
40103;Laerm;25814;48.550;9.108;2023-11-22T09:15:36;43.72;33.02;66.75;;
40103;Laerm;25814;48.550;9.108;2023-11-22T09:18:04;33.36;30.94;46.34;;
40103;Laerm;25814;48.550;9.108;2023-11-22T09:20:31;46.54;31.55;64.93;;
40103;Laerm;25814;48.550;9.108;2023-11-22T09:22:57;41.21;30.77;62.34;;
40103;Laerm;25814;48.550;9.108;2023-11-22T09:25:25;50.88;33.30;77.38;;
40103;Laerm;25814;48.550;9.108;2023-11-22T09:27:55;65.55;31.14;90.22;;
40103;Laerm;25814;48.550;9.108;2023-11-22T09:30:26;57.21;30.58;82.15;;
40103;Laerm;25814;48.550;9.108;2023-11-22T09:33:15;67.57;31.94;92.64;;
40103;Laerm;25814;48.550;9.108;2023-11-22T09:35:43;58.68;31.58;75.53;;
40103;Laerm;25814;48.550;9.108;2023-11-22T09:38:10;52.17;32.46;74.00;;
40103;Laerm;25814;48.550;9.108;2023-11-22T09:40:42;54.29;31.69;78.57;;
40103;Laerm;25814;48.550;9.108;2023-11-22T09:43:10;56.41;30.66;80.78;;
40103;Laerm;25814;48.550;9.108;2023-11-22T09:45:36;50.68;31.59;69.39;;
40103;Laerm;25814;48.550;9.108;2023-11-22T09:48:19;53.46;33.45;74.87;;
40103;Laerm;25814;48.550;9.108;2023-11-22T09:51:17;48.61;31.33;74.21;;
40103;Laerm;25814;48.550;9.108;2023-11-22T09:53:59;50.41;31.15;74.34;;
40103;Laerm;25814;48.550;9.108;2023-11-22T09:56:30;55.06;32.41;77.83;;
40103;Laerm;25814;48.550;9.108;2023-11-22T09:59:00;47.36;33.45;71.86;;
40103;Laerm;25814;48.550;9.108;2023-11-22T10:01:30;68.48;31.94;97.28;;
40103;Laerm;25814;48.550;9.108;2023-11-22T10:03:59;50.79;31.97;72.00;;
40103;Laerm;25814;48.550;9.108;2023-11-22T10:06:25;50.04;31.97;71.84;;
40103;Laerm;25814;48.550;9.108;2023-11-22T10:08:55;44.91;32.24;70.61;;
40103;Laerm;25814;48.550;9.108;2023-11-22T10:11:22;54.42;31.62;81.33;;
40103;Laerm;25814;48.550;9.108;2023-11-22T10:13:49;34.93;31.38;50.72;;
40103;Laerm;25814;48.550;9.108;2023-11-22T10:16:17;49.20;32.33;70.15;;
40103;Laerm;25814;48.550;9.108;2023-11-22T10:18:48;65.84;31.31;95.28;;
40103;Laerm;25814;48.550;9.108;2023-11-22T10:21:25;44.14;31.68;70.87;;
40103;Laerm;25814;48.550;9.108;2023-11-22T10:23:57;49.34;30.59;73.94;;
40103;Laerm;25814;48.550;9.108;2023-11-22T10:26:25;52.00;30.36;78.89;;
40103;Laerm;25814;48.550;9.108;2023-11-22T10:28:55;57.35;30.45;80.84;;
40103;Laerm;25814;48.550;9.108;2023-11-22T10:31:23;48.73;30.65;68.35;;
40103;Laerm;25814;48.550;9.108;2023-11-22T10:33:50;46.38;31.16;71.60;;
40103;Laerm;25814;48.550;9.108;2023-11-22T10:36:18;62.76;30.56;88.97;;
40103;Laerm;25814;48.550;9.108;2023-11-22T10:38:47;34.19;30.38;48.23;;
40103;Laerm;25814;48.550;9.108;2023-11-22T10:41:14;34.51;30.30;51.33;;
40103;Laerm;25814;48.550;9.108;2023-11-22T10:43:40;33.26;30.33;41.71;;
40103;Laerm;25814;48.550;9.108;2023-11-22T10:46:12;33.17;30.47;45.49;;
40103;Laerm;25814;48.550;9.108;2023-11-22T10:48:39;39.47;30.26;55.35;;
40103;Laerm;25814;48.550;9.108;2023-11-22T10:51:05;36.47;30.90;49.01;;
40103;Laerm;25814;48.550;9.108;2023-11-22T10:53:35;39.75;30.74;62.65;;
40103;Laerm;25814;48.550;9.108;2023-11-22T10:56:07;34.05;30.59;46.89;;
40103;Laerm;25814;48.550;9.108;2023-11-22T10:58:50;48.04;30.63;63.95;;
40103;Laerm;25814;48.550;9.108;2023-11-22T11:01:19;32.17;30.05;41.76;;
40103;Laerm;25814;48.550;9.108;2023-11-22T11:04:00;33.48;30.36;43.33;;
40103;Laerm;25814;48.550;9.108;2023-11-22T11:06:33;36.34;30.70;58.72;;
40103;Laerm;25814;48.550;9.108;2023-11-22T11:09:03;36.59;32.01;48.68;;
40103;Laerm;25814;48.550;9.108;2023-11-22T11:11:40;33.66;30.20;52.20;;
40103;Laerm;25814;48.550;9.108;2023-11-22T11:14:09;33.90;30.29;46.80;;
40103;Laerm;25814;48.550;9.108;2023-11-22T11:16:39;31.75;30.09;43.45;;
40103;Laerm;25814;48.550;9.108;2023-11-22T11:19:14;37.84;30.24;50.73;;
40103;Laerm;25814;48.550;9.108;2023-11-22T11:21:43;40.22;29.97;52.75;;
40103;Laerm;25814;48.550;9.108;2023-11-22T11:24:09;36.65;29.93;61.64;;
40103;Laerm;25814;48.550;9.108;2023-11-22T11:26:36;33.31;29.82;44.34;;
40103;Laerm;25814;48.550;9.108;2023-11-22T11:29:02;44.14;30.64;69.12;;
40103;Laerm;25814;48.550;9.108;2023-11-22T11:31:33;32.77;30.80;43.44;;
40103;Laerm;25814;48.550;9.108;2023-11-22T11:34:00;36.11;31.83;52.20;;
40103;Laerm;25814;48.550;9.108;2023-11-22T11:36:31;36.69;31.58;51.81;;
40103;Laerm;25814;48.550;9.108;2023-11-22T11:39:01;33.82;30.97;47.71;;
40103;Laerm;25814;48.550;9.108;2023-11-22T11:41:31;34.25;31.01;48.22;;
40103;Laerm;25814;48.550;9.108;2023-11-22T11:44:00;33.80;31.16;44.39;;
40103;Laerm;25814;48.550;9.108;2023-11-22T11:46:29;32.66;30.76;41.70;;
40103;Laerm;25814;48.550;9.108;2023-11-22T11:48:56;36.59;29.90;62.27;;
40103;Laerm;25814;48.550;9.108;2023-11-22T11:51:28;32.62;30.60;40.09;;
40103;Laerm;25814;48.550;9.108;2023-11-22T11:53:55;32.41;30.78;46.35;;
40103;Laerm;25814;48.550;9.108;2023-11-22T11:56:22;33.25;30.51;44.33;;
40103;Laerm;25814;48.550;9.108;2023-11-22T11:58:49;35.69;30.78;44.99;;
40103;Laerm;25814;48.550;9.108;2023-11-22T12:01:17;34.25;31.26;50.62;;
40103;Laerm;25814;48.550;9.108;2023-11-22T12:03:46;32.62;30.92;45.28;;
40103;Laerm;25814;48.550;9.108;2023-11-22T12:06:17;32.56;30.92;42.16;;
40103;Laerm;25814;48.550;9.108;2023-11-22T12:08:44;32.59;30.63;40.21;;
40103;Laerm;25814;48.550;9.108;2023-11-22T12:11:13;33.94;30.63;53.24;;
40103;Laerm;25814;48.550;9.108;2023-11-22T12:13:41;34.16;31.00;43.29;;
40103;Laerm;25814;48.550;9.108;2023-11-22T12:16:16;33.61;30.69;41.57;;
40103;Laerm;25814;48.550;9.108;2023-11-22T12:18:47;31.99;30.21;44.69;;
40103;Laerm;25814;48.550;9.108;2023-11-22T12:21:16;39.48;31.09;53.10;;
40103;Laerm;25814;48.550;9.108;2023-11-22T12:23:45;33.39;30.66;37.81;;
40103;Laerm;25814;48.550;9.108;2023-11-22T12:26:17;35.36;31.03;44.43;;
40103;Laerm;25814;48.550;9.108;2023-11-22T12:28:47;36.69;30.68;56.15;;
40103;Laerm;25814;48.550;9.108;2023-11-22T12:31:15;35.08;31.05;44.79;;
40103;Laerm;25814;48.550;9.108;2023-11-22T12:33:42;36.17;30.34;51.10;;
40103;Laerm;25814;48.550;9.108;2023-11-22T12:36:11;36.60;30.77;55.02;;
40103;Laerm;25814;48.550;9.108;2023-11-22T12:38:43;36.64;31.59;45.43;;
40103;Laerm;25814;48.550;9.108;2023-11-22T12:41:09;37.67;31.74;48.29;;
40103;Laerm;25814;48.550;9.108;2023-11-22T12:43:35;34.59;31.33;42.60;;
40103;Laerm;25814;48.550;9.108;2023-11-22T12:46:06;36.43;31.80;52.33;;
40103;Laerm;25814;48.550;9.108;2023-11-22T12:48:33;34.23;30.68;45.85;;
40103;Laerm;25814;48.550;9.108;2023-11-22T12:51:00;33.63;31.02;45.02;;
40103;Laerm;25814;48.550;9.108;2023-11-22T12:53:27;35.32;30.28;49.90;;
40103;Laerm;25814;48.550;9.108;2023-11-22T12:55:55;38.49;30.51;50.60;;
40103;Laerm;25814;48.550;9.108;2023-11-22T12:58:26;36.49;31.44;49.86;;
40103;Laerm;25814;48.550;9.108;2023-11-22T13:00:54;36.29;31.89;55.20;;
40103;Laerm;25814;48.550;9.108;2023-11-22T13:03:26;34.97;32.02;47.81;;
40103;Laerm;25814;48.550;9.108;2023-11-22T13:05:53;34.63;32.28;44.42;;
40103;Laerm;25814;48.550;9.108;2023-11-22T13:08:20;39.86;31.96;65.92;;
40103;Laerm;25814;48.550;9.108;2023-11-22T13:10:55;34.42;31.88;41.14;;
40103;Laerm;25814;48.550;9.108;2023-11-22T13:13:25;34.36;31.93;43.66;;
40103;Laerm;25814;48.550;9.108;2023-11-22T13:15:53;34.69;32.03;41.98;;
40103;Laerm;25814;48.550;9.108;2023-11-22T13:18:19;35.14;32.43;41.67;;
40103;Laerm;25814;48.550;9.108;2023-11-22T13:20:46;35.34;32.07;45.36;;
40103;Laerm;25814;48.550;9.108;2023-11-22T13:23:12;35.56;31.81;52.69;;
40103;Laerm;25814;48.550;9.108;2023-11-22T13:25:40;33.35;31.90;40.69;;
40103;Laerm;25814;48.550;9.108;2023-11-22T13:28:07;33.50;31.27;49.15;;
40103;Laerm;25814;48.550;9.108;2023-11-22T13:30:34;32.61;30.99;45.07;;
40103;Laerm;25814;48.550;9.108;2023-11-22T13:33:01;33.07;31.14;47.74;;
40103;Laerm;25814;48.550;9.108;2023-11-22T13:35:29;42.86;31.14;58.15;;
40103;Laerm;25814;48.550;9.108;2023-11-22T13:38:03;32.46;31.10;37.62;;
40103;Laerm;25814;48.550;9.108;2023-11-22T13:40:32;35.09;31.02;45.89;;
40103;Laerm;25814;48.550;9.108;2023-11-22T13:42:59;33.20;30.99;47.18;;
40103;Laerm;25814;48.550;9.108;2023-11-22T13:45:25;34.34;31.02;45.39;;
40103;Laerm;25814;48.550;9.108;2023-11-22T13:47:53;32.86;31.07;43.55;;